sensor_id;sensor_type;location;lat;lon;timestamp;pressure;altitude;pressure_sealevel;temperature
8227;BMP180;4154;48.810;9.012;2023-04-01T00:01:00;95702.00;;;8.30
8227;BMP180;4154;48.810;9.012;2023-04-01T00:03:26;95716.00;;;8.40
8227;BMP180;4154;48.810;9.012;2023-04-01T00:05:54;95704.00;;;8.50
8227;BMP180;4154;48.810;9.012;2023-04-01T00:08:21;95703.00;;;8.40
8227;BMP180;4154;48.810;9.012;2023-04-01T00:10:47;95701.00;;;8.40
8227;BMP180;4154;48.810;9.012;2023-04-01T00:13:13;95707.00;;;8.40
8227;BMP180;4154;48.810;9.012;2023-04-01T00:15:38;95692.00;;;8.50
8227;BMP180;4154;48.810;9.012;2023-04-01T00:18:04;95695.00;;;8.40
8227;BMP180;4154;48.810;9.012;2023-04-01T00:20:30;95700.00;;;8.40
8227;BMP180;4154;48.810;9.012;2023-04-01T00:22:56;95692.00;;;8.40
8227;BMP180;4154;48.810;9.012;2023-04-01T00:25:23;95689.00;;;8.30
8227;BMP180;4154;48.810;9.012;2023-04-01T00:27:49;95693.00;;;8.50
8227;BMP180;4154;48.810;9.012;2023-04-01T00:30:15;95692.00;;;8.50
8227;BMP180;4154;48.810;9.012;2023-04-01T00:32:41;95692.00;;;8.50
8227;BMP180;4154;48.810;9.012;2023-04-01T00:35:07;95706.00;;;8.50
8227;BMP180;4154;48.810;9.012;2023-04-01T00:37:37;95706.00;;;8.40
8227;BMP180;4154;48.810;9.012;2023-04-01T00:40:07;95705.00;;;8.40
8227;BMP180;4154;48.810;9.012;2023-04-01T00:42:33;95707.00;;;8.60
8227;BMP180;4154;48.810;9.012;2023-04-01T00:45:36;95694.00;;;8.50
8227;BMP180;4154;48.810;9.012;2023-04-01T00:48:30;95701.00;;;8.50
8227;BMP180;4154;48.810;9.012;2023-04-01T00:51:04;95714.00;;;8.40
8227;BMP180;4154;48.810;9.012;2023-04-01T00:53:32;95711.00;;;8.40
8227;BMP180;4154;48.810;9.012;2023-04-01T00:56:11;95708.00;;;8.40
8227;BMP180;4154;48.810;9.012;2023-04-01T00:58:44;95719.00;;;8.60
8227;BMP180;4154;48.810;9.012;2023-04-01T01:01:12;95708.00;;;8.50
8227;BMP180;4154;48.810;9.012;2023-04-01T01:03:38;95702.00;;;8.60
8227;BMP180;4154;48.810;9.012;2023-04-01T01:06:46;95704.00;;;8.60
8227;BMP180;4154;48.810;9.012;2023-04-01T01:12:54;95709.00;;;8.50
8227;BMP180;4154;48.810;9.012;2023-04-01T01:18:13;95701.00;;;8.50
8227;BMP180;4154;48.810;9.012;2023-04-01T01:26:53;95718.00;;;8.40
8227;BMP180;4154;48.810;9.012;2023-04-01T01:29:59;95709.00;;;8.50
8227;BMP180;4154;48.810;9.012;2023-04-01T01:35:49;95715.00;;;8.50
8227;BMP180;4154;48.810;9.012;2023-04-01T01:38:21;95720.00;;;8.50
8227;BMP180;4154;48.810;9.012;2023-04-01T01:40:51;95720.00;;;8.50
8227;BMP180;4154;48.810;9.012;2023-04-01T01:43:24;95720.00;;;8.50
8227;BMP180;4154;48.810;9.012;2023-04-01T01:45:57;95715.00;;;8.50
8227;BMP180;4154;48.810;9.012;2023-04-01T01:48:27;95715.00;;;8.40
8227;BMP180;4154;48.810;9.012;2023-04-01T01:50:54;95727.00;;;8.40
8227;BMP180;4154;48.810;9.012;2023-04-01T01:53:20;95704.00;;;8.30
8227;BMP180;4154;48.810;9.012;2023-04-01T01:55:47;95705.00;;;8.40
8227;BMP180;4154;48.810;9.012;2023-04-01T01:58:16;95701.00;;;8.50
8227;BMP180;4154;48.810;9.012;2023-04-01T02:00:49;95709.00;;;8.40
8227;BMP180;4154;48.810;9.012;2023-04-01T02:03:19;95707.00;;;8.40
8227;BMP180;4154;48.810;9.012;2023-04-01T02:05:50;95707.00;;;8.30
8227;BMP180;4154;48.810;9.012;2023-04-01T02:08:22;95700.00;;;8.20
8227;BMP180;4154;48.810;9.012;2023-04-01T02:10:59;95706.00;;;8.30
8227;BMP180;4154;48.810;9.012;2023-04-01T02:13:35;95721.00;;;8.20
8227;BMP180;4154;48.810;9.012;2023-04-01T02:16:12;95714.00;;;8.30
8227;BMP180;4154;48.810;9.012;2023-04-01T02:18:41;95715.00;;;8.20
8227;BMP180;4154;48.810;9.012;2023-04-01T02:21:09;95701.00;;;8.20
8227;BMP180;4154;48.810;9.012;2023-04-01T02:23:37;95703.00;;;8.20
8227;BMP180;4154;48.810;9.012;2023-04-01T02:26:07;95700.00;;;8.10
8227;BMP180;4154;48.810;9.012;2023-04-01T02:28:36;95683.00;;;8.20
8227;BMP180;4154;48.810;9.012;2023-04-01T02:31:04;95690.00;;;8.10
8227;BMP180;4154;48.810;9.012;2023-04-01T02:33:31;95697.00;;;8.20
8227;BMP180;4154;48.810;9.012;2023-04-01T02:35:58;95700.00;;;8.10
8227;BMP180;4154;48.810;9.012;2023-04-01T02:38:25;95692.00;;;8.10
8227;BMP180;4154;48.810;9.012;2023-04-01T02:40:58;95699.00;;;8.00
8227;BMP180;4154;48.810;9.012;2023-04-01T02:43:24;95698.00;;;8.00
8227;BMP180;4154;48.810;9.012;2023-04-01T02:45:50;95688.00;;;8.10
8227;BMP180;4154;48.810;9.012;2023-04-01T02:48:16;95690.00;;;8.00
8227;BMP180;4154;48.810;9.012;2023-04-01T02:50:41;95695.00;;;8.00
8227;BMP180;4154;48.810;9.012;2023-04-01T02:53:07;95695.00;;;8.10
8227;BMP180;4154;48.810;9.012;2023-04-01T02:55:34;95683.00;;;8.00
8227;BMP180;4154;48.810;9.012;2023-04-01T02:58:00;95689.00;;;8.10
8227;BMP180;4154;48.810;9.012;2023-04-01T03:00:26;95695.00;;;8.10
8227;BMP180;4154;48.810;9.012;2023-04-01T03:02:52;95697.00;;;8.10
8227;BMP180;4154;48.810;9.012;2023-04-01T03:05:19;95692.00;;;8.10
8227;BMP180;4154;48.810;9.012;2023-04-01T03:07:46;95698.00;;;8.10
8227;BMP180;4154;48.810;9.012;2023-04-01T03:10:12;95695.00;;;8.10
8227;BMP180;4154;48.810;9.012;2023-04-01T03:12:39;95709.00;;;8.10
8227;BMP180;4154;48.810;9.012;2023-04-01T03:15:05;95705.00;;;8.10
8227;BMP180;4154;48.810;9.012;2023-04-01T03:17:31;95705.00;;;8.10
8227;BMP180;4154;48.810;9.012;2023-04-01T03:19:56;95698.00;;;8.00
8227;BMP180;4154;48.810;9.012;2023-04-01T03:22:22;95701.00;;;8.10
8227;BMP180;4154;48.810;9.012;2023-04-01T03:24:49;95698.00;;;8.10
8227;BMP180;4154;48.810;9.012;2023-04-01T03:27:15;95691.00;;;8.10
8227;BMP180;4154;48.810;9.012;2023-04-01T03:29:41;95691.00;;;8.10
8227;BMP180;4154;48.810;9.012;2023-04-01T03:32:07;95698.00;;;8.10
8227;BMP180;4154;48.810;9.012;2023-04-01T03:34:33;95690.00;;;8.10
8227;BMP180;4154;48.810;9.012;2023-04-01T03:36:58;95689.00;;;8.10
8227;BMP180;4154;48.810;9.012;2023-04-01T03:39:25;95684.00;;;8.10
8227;BMP180;4154;48.810;9.012;2023-04-01T03:41:50;95693.00;;;8.00
8227;BMP180;4154;48.810;9.012;2023-04-01T03:44:16;95688.00;;;8.00
8227;BMP180;4154;48.810;9.012;2023-04-01T03:46:42;95681.00;;;8.00
8227;BMP180;4154;48.810;9.012;2023-04-01T03:49:09;95668.00;;;8.00
8227;BMP180;4154;48.810;9.012;2023-04-01T03:51:41;95679.00;;;7.90
8227;BMP180;4154;48.810;9.012;2023-04-01T03:54:07;95680.00;;;8.00
8227;BMP180;4154;48.810;9.012;2023-04-01T03:56:33;95679.00;;;7.90
8227;BMP180;4154;48.810;9.012;2023-04-01T03:59:03;95676.00;;;8.00
8227;BMP180;4154;48.810;9.012;2023-04-01T04:01:29;95670.00;;;7.90
8227;BMP180;4154;48.810;9.012;2023-04-01T04:03:55;95674.00;;;7.90
8227;BMP180;4154;48.810;9.012;2023-04-01T04:06:23;95674.00;;;8.00
8227;BMP180;4154;48.810;9.012;2023-04-01T04:08:49;95663.00;;;7.90
8227;BMP180;4154;48.810;9.012;2023-04-01T04:11:16;95664.00;;;7.80
8227;BMP180;4154;48.810;9.012;2023-04-01T04:13:42;95665.00;;;7.90
8227;BMP180;4154;48.810;9.012;2023-04-01T04:16:09;95671.00;;;7.90
8227;BMP180;4154;48.810;9.012;2023-04-01T04:18:36;95664.00;;;7.90
8227;BMP180;4154;48.810;9.012;2023-04-01T04:21:03;95662.00;;;7.90
8227;BMP180;4154;48.810;9.012;2023-04-01T04:23:29;95661.00;;;8.00
8227;BMP180;4154;48.810;9.012;2023-04-01T04:26:05;95665.00;;;7.90
8227;BMP180;4154;48.810;9.012;2023-04-01T04:28:32;95665.00;;;7.80
8227;BMP180;4154;48.810;9.012;2023-04-01T04:30:58;95658.00;;;7.80
8227;BMP180;4154;48.810;9.012;2023-04-01T04:33:25;95662.00;;;7.90
8227;BMP180;4154;48.810;9.012;2023-04-01T04:35:54;95658.00;;;7.80
8227;BMP180;4154;48.810;9.012;2023-04-01T04:38:20;95671.00;;;7.80
8227;BMP180;4154;48.810;9.012;2023-04-01T04:40:45;95650.00;;;7.80
8227;BMP180;4154;48.810;9.012;2023-04-01T04:43:14;95652.00;;;7.70
8227;BMP180;4154;48.810;9.012;2023-04-01T04:45:41;95647.00;;;7.80
8227;BMP180;4154;48.810;9.012;2023-04-01T04:48:09;95665.00;;;7.80
8227;BMP180;4154;48.810;9.012;2023-04-01T04:50:35;95646.00;;;7.80
8227;BMP180;4154;48.810;9.012;2023-04-01T04:53:02;95650.00;;;7.80
8227;BMP180;4154;48.810;9.012;2023-04-01T04:55:28;95636.00;;;7.80
8227;BMP180;4154;48.810;9.012;2023-04-01T04:57:53;95646.00;;;7.70
8227;BMP180;4154;48.810;9.012;2023-04-01T05:00:19;95629.00;;;7.70
8227;BMP180;4154;48.810;9.012;2023-04-01T05:02:45;95642.00;;;7.70
8227;BMP180;4154;48.810;9.012;2023-04-01T05:05:11;95654.00;;;7.90
8227;BMP180;4154;48.810;9.012;2023-04-01T05:07:37;95648.00;;;7.70
8227;BMP180;4154;48.810;9.012;2023-04-01T05:10:04;95647.00;;;7.80
8227;BMP180;4154;48.810;9.012;2023-04-01T05:12:29;95653.00;;;7.80
8227;BMP180;4154;48.810;9.012;2023-04-01T05:14:56;95654.00;;;7.90
8227;BMP180;4154;48.810;9.012;2023-04-01T05:17:22;95657.00;;;7.90
8227;BMP180;4154;48.810;9.012;2023-04-01T05:19:47;95652.00;;;7.90
8227;BMP180;4154;48.810;9.012;2023-04-01T05:22:13;95643.00;;;7.80
8227;BMP180;4154;48.810;9.012;2023-04-01T05:24:39;95655.00;;;7.80
8227;BMP180;4154;48.810;9.012;2023-04-01T05:27:05;95643.00;;;7.80
8227;BMP180;4154;48.810;9.012;2023-04-01T05:29:30;95648.00;;;7.80
8227;BMP180;4154;48.810;9.012;2023-04-01T05:31:57;95647.00;;;7.90
8227;BMP180;4154;48.810;9.012;2023-04-01T05:34:23;95639.00;;;7.90
8227;BMP180;4154;48.810;9.012;2023-04-01T05:36:48;95623.00;;;7.90
8227;BMP180;4154;48.810;9.012;2023-04-01T05:39:14;95630.00;;;8.10
8227;BMP180;4154;48.810;9.012;2023-04-01T05:41:40;95627.00;;;8.00
8227;BMP180;4154;48.810;9.012;2023-04-01T05:44:06;95636.00;;;8.00
8227;BMP180;4154;48.810;9.012;2023-04-01T05:46:32;95647.00;;;8.00
8227;BMP180;4154;48.810;9.012;2023-04-01T05:48:58;95627.00;;;8.20
8227;BMP180;4154;48.810;9.012;2023-04-01T05:51:23;95637.00;;;8.20
8227;BMP180;4154;48.810;9.012;2023-04-01T05:53:49;95632.00;;;8.20
8227;BMP180;4154;48.810;9.012;2023-04-01T05:56:15;95627.00;;;8.20
8227;BMP180;4154;48.810;9.012;2023-04-01T05:58:41;95625.00;;;8.20
8227;BMP180;4154;48.810;9.012;2023-04-01T06:01:10;95615.00;;;8.20
8227;BMP180;4154;48.810;9.012;2023-04-01T06:03:36;95618.00;;;8.10
8227;BMP180;4154;48.810;9.012;2023-04-01T06:06:03;95611.00;;;8.20
8227;BMP180;4154;48.810;9.012;2023-04-01T06:08:31;95617.00;;;8.20
8227;BMP180;4154;48.810;9.012;2023-04-01T06:13:31;95617.00;;;8.30
8227;BMP180;4154;48.810;9.012;2023-04-01T06:19:51;95617.00;;;8.50
8227;BMP180;4154;48.810;9.012;2023-04-01T06:22:45;95625.00;;;8.50
8227;BMP180;4154;48.810;9.012;2023-04-01T06:38:10;95632.00;;;8.60
8227;BMP180;4154;48.810;9.012;2023-04-01T06:52:44;95637.00;;;8.60
8227;BMP180;4154;48.810;9.012;2023-04-01T06:55:23;95639.00;;;8.50
8227;BMP180;4154;48.810;9.012;2023-04-01T06:57:56;95645.00;;;8.60
8227;BMP180;4154;48.810;9.012;2023-04-01T07:00:30;95634.00;;;8.60
8227;BMP180;4154;48.810;9.012;2023-04-01T07:03:15;95630.00;;;8.60
8227;BMP180;4154;48.810;9.012;2023-04-01T07:05:42;95642.00;;;8.60
8227;BMP180;4154;48.810;9.012;2023-04-01T07:08:17;95623.00;;;8.70
8227;BMP180;4154;48.810;9.012;2023-04-01T07:11:32;95638.00;;;8.70
8227;BMP180;4154;48.810;9.012;2023-04-01T07:13:59;95643.00;;;8.60
8227;BMP180;4154;48.810;9.012;2023-04-01T07:16:45;95638.00;;;8.60
8227;BMP180;4154;48.810;9.012;2023-04-01T07:19:29;95646.00;;;8.60
8227;BMP180;4154;48.810;9.012;2023-04-01T07:24:36;95650.00;;;8.60
8227;BMP180;4154;48.810;9.012;2023-04-01T07:27:08;95651.00;;;8.50
8227;BMP180;4154;48.810;9.012;2023-04-01T07:29:34;95647.00;;;8.50
8227;BMP180;4154;48.810;9.012;2023-04-01T07:37:55;95649.00;;;8.60
8227;BMP180;4154;48.810;9.012;2023-04-01T07:40:41;95656.00;;;8.70
8227;BMP180;4154;48.810;9.012;2023-04-01T07:46:45;95655.00;;;8.70
8227;BMP180;4154;48.810;9.012;2023-04-01T07:49:24;95664.00;;;8.70
8227;BMP180;4154;48.810;9.012;2023-04-01T07:52:11;95666.00;;;8.70
8227;BMP180;4154;48.810;9.012;2023-04-01T07:55:24;95664.00;;;8.80
8227;BMP180;4154;48.810;9.012;2023-04-01T07:58:17;95657.00;;;8.90
8227;BMP180;4154;48.810;9.012;2023-04-01T08:07:20;95664.00;;;9.00
8227;BMP180;4154;48.810;9.012;2023-04-01T08:19:00;95671.00;;;9.10
8227;BMP180;4154;48.810;9.012;2023-04-01T08:21:39;95671.00;;;9.10
8227;BMP180;4154;48.810;9.012;2023-04-01T08:27:13;95678.00;;;9.00
8227;BMP180;4154;48.810;9.012;2023-04-01T08:32:50;95693.00;;;9.10
8227;BMP180;4154;48.810;9.012;2023-04-01T08:35:29;95692.00;;;9.00
8227;BMP180;4154;48.810;9.012;2023-04-01T08:38:01;95693.00;;;8.90
8227;BMP180;4154;48.810;9.012;2023-04-01T08:41:07;95683.00;;;8.80
8227;BMP180;4154;48.810;9.012;2023-04-01T08:47:19;95684.00;;;8.70
8227;BMP180;4154;48.810;9.012;2023-04-01T08:50:22;95691.00;;;8.60
8227;BMP180;4154;48.810;9.012;2023-04-01T08:53:18;95686.00;;;8.70
8227;BMP180;4154;48.810;9.012;2023-04-01T08:56:12;95686.00;;;8.70
8227;BMP180;4154;48.810;9.012;2023-04-01T08:59:24;95678.00;;;8.60
8227;BMP180;4154;48.810;9.012;2023-04-01T09:02:46;95685.00;;;8.70
8227;BMP180;4154;48.810;9.012;2023-04-01T09:06:06;95672.00;;;8.80
8227;BMP180;4154;48.810;9.012;2023-04-01T09:12:26;95665.00;;;8.90
8227;BMP180;4154;48.810;9.012;2023-04-01T09:15:25;95677.00;;;9.00
8227;BMP180;4154;48.810;9.012;2023-04-01T09:21:15;95691.00;;;9.40
8227;BMP180;4154;48.810;9.012;2023-04-01T09:27:03;95688.00;;;9.60
8227;BMP180;4154;48.810;9.012;2023-04-01T09:29:59;95692.00;;;9.50
8227;BMP180;4154;48.810;9.012;2023-04-01T09:38:22;95695.00;;;9.50
8227;BMP180;4154;48.810;9.012;2023-04-01T09:40:58;95708.00;;;9.60
8227;BMP180;4154;48.810;9.012;2023-04-01T09:44:14;95698.00;;;9.50
8227;BMP180;4154;48.810;9.012;2023-04-01T09:47:06;95696.00;;;9.40
8227;BMP180;4154;48.810;9.012;2023-04-01T09:59:01;95699.00;;;9.70
8227;BMP180;4154;48.810;9.012;2023-04-01T10:10:55;95703.00;;;9.90
8227;BMP180;4154;48.810;9.012;2023-04-01T10:16:56;95701.00;;;10.10
8227;BMP180;4154;48.810;9.012;2023-04-01T10:32:19;95718.00;;;10.10
8227;BMP180;4154;48.810;9.012;2023-04-01T10:35:20;95720.00;;;10.20
8227;BMP180;4154;48.810;9.012;2023-04-01T10:59:27;95724.00;;;10.50
8227;BMP180;4154;48.810;9.012;2023-04-01T11:02:01;95722.00;;;10.50
8227;BMP180;4154;48.810;9.012;2023-04-01T11:08:19;95706.00;;;10.60
8227;BMP180;4154;48.810;9.012;2023-04-01T11:14:19;95725.00;;;10.90
8227;BMP180;4154;48.810;9.012;2023-04-01T11:17:30;95700.00;;;11.00
8227;BMP180;4154;48.810;9.012;2023-04-01T11:20:26;95709.00;;;11.00
8227;BMP180;4154;48.810;9.012;2023-04-01T11:23:30;95708.00;;;11.00
8227;BMP180;4154;48.810;9.012;2023-04-01T11:29:37;95720.00;;;11.20
8227;BMP180;4154;48.810;9.012;2023-04-01T11:32:31;95728.00;;;11.20
8227;BMP180;4154;48.810;9.012;2023-04-01T11:38:56;95727.00;;;11.40
8227;BMP180;4154;48.810;9.012;2023-04-01T11:41:48;95736.00;;;11.40
8227;BMP180;4154;48.810;9.012;2023-04-01T11:44:27;95744.00;;;11.30
8227;BMP180;4154;48.810;9.012;2023-04-01T11:47:22;95734.00;;;11.20
8227;BMP180;4154;48.810;9.012;2023-04-01T11:50:12;95751.00;;;11.10
8227;BMP180;4154;48.810;9.012;2023-04-01T11:56:17;95751.00;;;10.90
8227;BMP180;4154;48.810;9.012;2023-04-01T12:08:20;95758.00;;;10.70
8227;BMP180;4154;48.810;9.012;2023-04-01T12:11:23;95776.00;;;10.80
8227;BMP180;4154;48.810;9.012;2023-04-01T12:14:17;95755.00;;;10.70
8227;BMP180;4154;48.810;9.012;2023-04-01T12:17:09;95764.00;;;10.50
8227;BMP180;4154;48.810;9.012;2023-04-01T12:20:10;95765.00;;;10.40
8227;BMP180;4154;48.810;9.012;2023-04-01T12:29:07;95769.00;;;10.70
8227;BMP180;4154;48.810;9.012;2023-04-01T12:35:17;95761.00;;;10.80
8227;BMP180;4154;48.810;9.012;2023-04-01T12:41:08;95764.00;;;11.00
8227;BMP180;4154;48.810;9.012;2023-04-01T12:49:53;95776.00;;;11.20
8227;BMP180;4154;48.810;9.012;2023-04-01T12:55:39;95774.00;;;11.00
8227;BMP180;4154;48.810;9.012;2023-04-01T13:01:44;95785.00;;;10.90
8227;BMP180;4154;48.810;9.012;2023-04-01T13:04:47;95788.00;;;11.00
8227;BMP180;4154;48.810;9.012;2023-04-01T13:07:53;95785.00;;;11.00
8227;BMP180;4154;48.810;9.012;2023-04-01T13:11:02;95799.00;;;10.80
8227;BMP180;4154;48.810;9.012;2023-04-01T13:16:30;95792.00;;;11.00
8227;BMP180;4154;48.810;9.012;2023-04-01T13:22:00;95810.00;;;10.80
8227;BMP180;4154;48.810;9.012;2023-04-01T13:24:50;95791.00;;;11.00
8227;BMP180;4154;48.810;9.012;2023-04-01T13:27:41;95812.00;;;11.00
8227;BMP180;4154;48.810;9.012;2023-04-01T13:30:39;95798.00;;;11.00
8227;BMP180;4154;48.810;9.012;2023-04-01T13:33:30;95809.00;;;10.90
8227;BMP180;4154;48.810;9.012;2023-04-01T13:39:17;95817.00;;;10.80
8227;BMP180;4154;48.810;9.012;2023-04-01T13:54:37;95838.00;;;10.60
8227;BMP180;4154;48.810;9.012;2023-04-01T13:57:57;95827.00;;;10.20
8227;BMP180;4154;48.810;9.012;2023-04-01T14:03:30;95843.00;;;10.30
8227;BMP180;4154;48.810;9.012;2023-04-01T14:11:50;95839.00;;;10.30
8227;BMP180;4154;48.810;9.012;2023-04-01T14:14:43;95838.00;;;10.30
8227;BMP180;4154;48.810;9.012;2023-04-01T14:17:58;95838.00;;;10.30
8227;BMP180;4154;48.810;9.012;2023-04-01T14:20:48;95838.00;;;10.10
8227;BMP180;4154;48.810;9.012;2023-04-01T14:23:57;95848.00;;;10.30
8227;BMP180;4154;48.810;9.012;2023-04-01T14:44:38;95848.00;;;10.30
8227;BMP180;4154;48.810;9.012;2023-04-01T14:47:53;95846.00;;;10.40
8227;BMP180;4154;48.810;9.012;2023-04-01T14:50:29;95860.00;;;10.40
8227;BMP180;4154;48.810;9.012;2023-04-01T14:53:29;95854.00;;;10.40
8227;BMP180;4154;48.810;9.012;2023-04-01T14:56:02;95850.00;;;10.50
8227;BMP180;4154;48.810;9.012;2023-04-01T14:58:47;95869.00;;;10.40
8227;BMP180;4154;48.810;9.012;2023-04-01T15:08:01;95864.00;;;10.40
8227;BMP180;4154;48.810;9.012;2023-04-01T15:19:23;95869.00;;;10.50
8227;BMP180;4154;48.810;9.012;2023-04-01T15:22:20;95870.00;;;10.50
8227;BMP180;4154;48.810;9.012;2023-04-01T15:28:41;95872.00;;;10.50
8227;BMP180;4154;48.810;9.012;2023-04-01T15:31:29;95870.00;;;10.60
8227;BMP180;4154;48.810;9.012;2023-04-01T15:34:21;95886.00;;;10.40
8227;BMP180;4154;48.810;9.012;2023-04-01T15:37:04;95883.00;;;10.40
8227;BMP180;4154;48.810;9.012;2023-04-01T15:45:07;95891.00;;;10.50
8227;BMP180;4154;48.810;9.012;2023-04-01T15:47:46;95882.00;;;10.30
8227;BMP180;4154;48.810;9.012;2023-04-01T15:50:51;95885.00;;;10.40
8227;BMP180;4154;48.810;9.012;2023-04-01T15:53:30;95894.00;;;10.30
8227;BMP180;4154;48.810;9.012;2023-04-01T16:08:13;95884.00;;;10.30
8227;BMP180;4154;48.810;9.012;2023-04-01T16:14:09;95896.00;;;10.30
8227;BMP180;4154;48.810;9.012;2023-04-01T16:20:19;95889.00;;;10.20
8227;BMP180;4154;48.810;9.012;2023-04-01T16:22:56;95892.00;;;10.20
8227;BMP180;4154;48.810;9.012;2023-04-01T16:29:19;95906.00;;;10.20
8227;BMP180;4154;48.810;9.012;2023-04-01T16:35:05;95918.00;;;10.20
8227;BMP180;4154;48.810;9.012;2023-04-01T16:37:47;95918.00;;;10.10
8227;BMP180;4154;48.810;9.012;2023-04-01T16:40:37;95921.00;;;10.20
8227;BMP180;4154;48.810;9.012;2023-04-01T16:48:49;95923.00;;;10.30
8227;BMP180;4154;48.810;9.012;2023-04-01T16:51:18;95919.00;;;10.30
8227;BMP180;4154;48.810;9.012;2023-04-01T16:54:00;95918.00;;;10.20
8227;BMP180;4154;48.810;9.012;2023-04-01T16:56:49;95935.00;;;10.40
8227;BMP180;4154;48.810;9.012;2023-04-01T16:59:44;95916.00;;;10.40
8227;BMP180;4154;48.810;9.012;2023-04-01T17:02:26;95917.00;;;10.40
8227;BMP180;4154;48.810;9.012;2023-04-01T17:05:04;95913.00;;;10.20
8227;BMP180;4154;48.810;9.012;2023-04-01T17:08:03;95917.00;;;10.20
8227;BMP180;4154;48.810;9.012;2023-04-01T17:11:00;95917.00;;;10.20
8227;BMP180;4154;48.810;9.012;2023-04-01T17:20:26;95931.00;;;10.10
8227;BMP180;4154;48.810;9.012;2023-04-01T17:23:31;95941.00;;;10.10
8227;BMP180;4154;48.810;9.012;2023-04-01T17:29:17;95943.00;;;10.10
8227;BMP180;4154;48.810;9.012;2023-04-01T17:34:25;95966.00;;;10.10
8227;BMP180;4154;48.810;9.012;2023-04-01T17:43:27;95993.00;;;10.00
8227;BMP180;4154;48.810;9.012;2023-04-01T17:46:24;95989.00;;;10.00
8227;BMP180;4154;48.810;9.012;2023-04-01T17:49:51;96016.00;;;9.90
8227;BMP180;4154;48.810;9.012;2023-04-01T17:52:47;96017.00;;;9.70
8227;BMP180;4154;48.810;9.012;2023-04-01T17:55:59;96023.00;;;9.70
8227;BMP180;4154;48.810;9.012;2023-04-01T17:58:53;96030.00;;;9.70
8227;BMP180;4154;48.810;9.012;2023-04-01T18:02:03;96017.00;;;9.50
8227;BMP180;4154;48.810;9.012;2023-04-01T18:05:15;96017.00;;;9.40
8227;BMP180;4154;48.810;9.012;2023-04-01T18:08:25;96015.00;;;9.40
8227;BMP180;4154;48.810;9.012;2023-04-01T18:11:28;96020.00;;;9.30
8227;BMP180;4154;48.810;9.012;2023-04-01T18:23:19;96016.00;;;9.30
8227;BMP180;4154;48.810;9.012;2023-04-01T18:25:50;96014.00;;;9.20
8227;BMP180;4154;48.810;9.012;2023-04-01T18:28:26;96026.00;;;9.20
8227;BMP180;4154;48.810;9.012;2023-04-01T18:36:55;96033.00;;;9.10
8227;BMP180;4154;48.810;9.012;2023-04-01T18:39:49;96031.00;;;9.00
8227;BMP180;4154;48.810;9.012;2023-04-01T18:54:10;96056.00;;;8.90
8227;BMP180;4154;48.810;9.012;2023-04-01T18:56:42;96061.00;;;8.80
8227;BMP180;4154;48.810;9.012;2023-04-01T19:00:51;96073.00;;;8.80
8227;BMP180;4154;48.810;9.012;2023-04-01T19:02:51;96070.00;;;8.80
8227;BMP180;4154;48.810;9.012;2023-04-01T19:05:38;96077.00;;;8.70
8227;BMP180;4154;48.810;9.012;2023-04-01T19:13:52;96067.00;;;8.50
8227;BMP180;4154;48.810;9.012;2023-04-01T19:17:17;96064.00;;;8.50
8227;BMP180;4154;48.810;9.012;2023-04-01T19:25:48;96061.00;;;8.40
8227;BMP180;4154;48.810;9.012;2023-04-01T19:36:45;96069.00;;;8.40
8227;BMP180;4154;48.810;9.012;2023-04-01T19:39:31;96079.00;;;8.30
8227;BMP180;4154;48.810;9.012;2023-04-01T19:56:39;96084.00;;;8.30
8227;BMP180;4154;48.810;9.012;2023-04-01T19:59:50;96087.00;;;8.40
8227;BMP180;4154;48.810;9.012;2023-04-01T20:08:09;96085.00;;;8.30
8227;BMP180;4154;48.810;9.012;2023-04-01T20:13:41;96083.00;;;8.30
8227;BMP180;4154;48.810;9.012;2023-04-01T20:16:11;96107.00;;;8.40
8227;BMP180;4154;48.810;9.012;2023-04-01T20:18:55;96100.00;;;8.40
8227;BMP180;4154;48.810;9.012;2023-04-01T20:21:41;96105.00;;;8.40
8227;BMP180;4154;48.810;9.012;2023-04-01T20:24:26;96100.00;;;8.50
8227;BMP180;4154;48.810;9.012;2023-04-01T20:39:10;96111.00;;;8.50
8227;BMP180;4154;48.810;9.012;2023-04-01T20:52:54;96119.00;;;8.50
8227;BMP180;4154;48.810;9.012;2023-04-01T21:01:40;96129.00;;;8.50
8227;BMP180;4154;48.810;9.012;2023-04-01T21:04:37;96126.00;;;8.40
8227;BMP180;4154;48.810;9.012;2023-04-01T21:07:28;96129.00;;;8.30
8227;BMP180;4154;48.810;9.012;2023-04-01T21:10:41;96124.00;;;8.40
8227;BMP180;4154;48.810;9.012;2023-04-01T21:13:33;96130.00;;;8.40
8227;BMP180;4154;48.810;9.012;2023-04-01T21:25:26;96149.00;;;8.30
8227;BMP180;4154;48.810;9.012;2023-04-01T21:28:35;96150.00;;;8.30
8227;BMP180;4154;48.810;9.012;2023-04-01T21:31:21;96158.00;;;8.30
8227;BMP180;4154;48.810;9.012;2023-04-01T21:34:35;96157.00;;;8.30
8227;BMP180;4154;48.810;9.012;2023-04-01T21:37:31;96160.00;;;8.30
8227;BMP180;4154;48.810;9.012;2023-04-01T21:40:16;96163.00;;;8.30
8227;BMP180;4154;48.810;9.012;2023-04-01T21:43:56;96168.00;;;8.20
8227;BMP180;4154;48.810;9.012;2023-04-01T21:49:44;96187.00;;;8.20
8227;BMP180;4154;48.810;9.012;2023-04-01T22:04:44;96193.00;;;8.10
8227;BMP180;4154;48.810;9.012;2023-04-01T22:07:20;96193.00;;;8.10
8227;BMP180;4154;48.810;9.012;2023-04-01T22:12:44;96191.00;;;8.10
8227;BMP180;4154;48.810;9.012;2023-04-01T22:15:52;96198.00;;;8.10
8227;BMP180;4154;48.810;9.012;2023-04-01T22:21:24;96192.00;;;8.20
8227;BMP180;4154;48.810;9.012;2023-04-01T22:24:06;96189.00;;;8.20
8227;BMP180;4154;48.810;9.012;2023-04-01T22:27:06;96186.00;;;8.20
8227;BMP180;4154;48.810;9.012;2023-04-01T22:32:55;96179.00;;;8.20
8227;BMP180;4154;48.810;9.012;2023-04-01T22:41:18;96197.00;;;8.20
8227;BMP180;4154;48.810;9.012;2023-04-01T22:43:47;96194.00;;;8.20
8227;BMP180;4154;48.810;9.012;2023-04-01T22:47:08;96211.00;;;8.20
8227;BMP180;4154;48.810;9.012;2023-04-01T22:49:58;96207.00;;;8.20
8227;BMP180;4154;48.810;9.012;2023-04-01T22:52:34;96206.00;;;8.20
8227;BMP180;4154;48.810;9.012;2023-04-01T22:55:16;96213.00;;;8.20
8227;BMP180;4154;48.810;9.012;2023-04-01T22:57:55;96202.00;;;8.20
8227;BMP180;4154;48.810;9.012;2023-04-01T23:00:26;96197.00;;;8.20
8227;BMP180;4154;48.810;9.012;2023-04-01T23:03:17;96208.00;;;8.10
8227;BMP180;4154;48.810;9.012;2023-04-01T23:06:03;96209.00;;;8.00
8227;BMP180;4154;48.810;9.012;2023-04-01T23:08:46;96210.00;;;8.00
8227;BMP180;4154;48.810;9.012;2023-04-01T23:11:30;96207.00;;;8.00
8227;BMP180;4154;48.810;9.012;2023-04-01T23:14:32;96213.00;;;8.10
8227;BMP180;4154;48.810;9.012;2023-04-01T23:20:21;96217.00;;;8.00
8227;BMP180;4154;48.810;9.012;2023-04-01T23:22:59;96216.00;;;7.90
8227;BMP180;4154;48.810;9.012;2023-04-01T23:26:08;96219.00;;;7.90
8227;BMP180;4154;48.810;9.012;2023-04-01T23:28:47;96220.00;;;7.90
8227;BMP180;4154;48.810;9.012;2023-04-01T23:31:39;96229.00;;;7.90
8227;BMP180;4154;48.810;9.012;2023-04-01T23:36:42;96240.00;;;7.90
8227;BMP180;4154;48.810;9.012;2023-04-01T23:41:50;96237.00;;;7.90
8227;BMP180;4154;48.810;9.012;2023-04-01T23:44:17;96246.00;;;7.90
8227;BMP180;4154;48.810;9.012;2023-04-01T23:46:46;96243.00;;;7.90
8227;BMP180;4154;48.810;9.012;2023-04-01T23:49:22;96236.00;;;7.80
8227;BMP180;4154;48.810;9.012;2023-04-01T23:52:19;96239.00;;;7.70
8227;BMP180;4154;48.810;9.012;2023-04-01T23:54:57;96243.00;;;7.80